Time;durP1;ratioP1;P1;durP2;ratioP2;P2;SDS_P1;SDS_P2;PMS_P1;PMS_P2;Temp;Humidity;BMP_temperature;BMP_pressure;BME280_temperature;BME280_humidity;BME280_pressure;Samples;Min_cycle;Max_cycle;Signal;HPM_P1;HPM_P2
2021/01/12 00:01:45;;;;;;;8.77;5.85;;;6.70;99.90;;;;;;5073996;28;20040;-72
2021/01/12 00:04:11;;;;;;;8.68;5.85;;;6.70;99.90;;;;;;5074142;28;20052;-71
2021/01/12 00:06:37;;;;;;;8.82;5.95;;;6.70;99.90;;;;;;5073953;28;20102;-72
2021/01/12 00:09:04;;;;;;;9.40;5.65;;;6.60;99.90;;;;;;5075477;28;20039;-73
2021/01/12 00:11:30;;;;;;;11.57;6.10;;;6.60;99.90;;;;;;5073671;28;20047;-72
2021/01/12 00:13:57;;;;;;;9.02;5.30;;;6.60;99.90;;;;;;5073733;28;20029;-71
2021/01/12 00:16:23;;;;;;;8.77;5.68;;;6.60;99.90;;;;;;5073548;28;20056;-71
2021/01/12 00:18:49;;;;;;;7.82;4.97;;;6.70;99.90;;;;;;5073691;28;20059;-71
2021/01/12 00:21:15;;;;;;;6.93;4.95;;;6.70;99.90;;;;;;5075005;28;20075;-71
2021/01/12 00:23:41;;;;;;;10.82;5.57;;;6.70;99.90;;;;;;5073587;28;20032;-71
2021/01/12 00:26:07;;;;;;;7.85;5.30;;;6.70;99.90;;;;;;5073292;28;20050;-72
2021/01/12 00:28:36;;;;;;;9.00;5.35;;;6.70;99.90;;;;;;5073347;28;20482;-71
2021/01/12 00:31:06;;;;;;;10.05;5.28;;;6.70;99.90;;;;;;5072453;28;20041;-71
2021/01/12 00:33:32;;;;;;;8.70;4.95;;;6.70;99.90;;;;;;5073011;28;20055;-72
2021/01/12 00:36:07;;;;;;;9.68;5.50;;;6.70;99.90;;;;;;5075069;28;20021;-72
2021/01/12 00:38:34;;;;;;;6.65;5.30;;;6.80;99.90;;;;;;5072958;28;20052;-71
2021/01/12 00:41:05;;;;;;;8.50;5.63;;;6.70;99.90;;;;;;5072135;28;20490;-72
2021/01/12 00:43:32;;;;;;;7.88;4.80;;;6.70;99.90;;;;;;5073256;28;20025;-73
2021/01/12 00:45:57;;;;;;;6.65;4.78;;;6.70;99.90;;;;;;5072499;28;20035;-72
2021/01/12 00:48:23;;;;;;;7.50;5.00;;;6.70;99.90;;;;;;5073288;28;20036;-72
2021/01/12 00:50:49;;;;;;;8.25;5.25;;;6.80;99.90;;;;;;5072871;28;20036;-71
2021/01/12 00:53:14;;;;;;;7.80;4.60;;;6.90;99.90;;;;;;5072890;28;20033;-71
2021/01/12 00:55:40;;;;;;;8.00;4.93;;;6.90;99.90;;;;;;5072746;28;20123;-72
2021/01/12 00:58:05;;;;;;;7.00;4.95;;;6.90;99.90;;;;;;5073091;28;20028;-71
2021/01/12 01:00:31;;;;;;;7.10;4.97;;;6.80;99.90;;;;;;5072700;28;20327;-72
2021/01/12 01:02:57;;;;;;;7.05;5.30;;;6.90;99.90;;;;;;5074262;28;20399;-71
2021/01/12 01:05:23;;;;;;;6.82;4.88;;;6.80;99.90;;;;;;5072550;28;20477;-71
2021/01/12 01:07:48;;;;;;;7.57;5.50;;;6.80;99.90;;;;;;5061473;28;20055;-71
2021/01/12 01:10:14;;;;;;;7.22;5.05;;;6.80;99.90;;;;;;5051594;28;20043;-71
2021/01/12 01:12:40;;;;;;;7.32;5.40;;;6.80;99.90;;;;;;5051526;28;20025;-72
2021/01/12 01:15:07;;;;;;;8.48;5.57;;;6.80;99.90;;;;;;5053174;28;20025;-72
2021/01/12 01:17:35;;;;;;;7.53;5.22;;;6.80;99.90;;;;;;5069770;28;20090;-72
2021/01/12 01:20:02;;;;;;;9.70;5.60;;;6.80;99.90;;;;;;5071329;28;20343;-71
2021/01/12 01:22:28;;;;;;;8.10;5.55;;;6.80;99.90;;;;;;5072330;28;20033;-72
2021/01/12 01:24:53;;;;;;;12.25;5.68;;;6.80;99.90;;;;;;5072461;28;20021;-71
2021/01/12 01:27:19;;;;;;;8.13;5.47;;;6.90;99.90;;;;;;5073904;28;20086;-72
2021/01/12 01:29:44;;;;;;;8.40;5.85;;;6.80;99.90;;;;;;5072278;28;20055;-71
2021/01/12 01:32:10;;;;;;;9.20;5.93;;;6.80;99.90;;;;;;5072149;28;20069;-72
2021/01/12 01:34:37;;;;;;;8.25;6.00;;;6.90;99.90;;;;;;5071954;28;20051;-72
2021/01/12 01:37:03;;;;;;;6.53;5.25;;;6.80;99.90;;;;;;5070963;28;20052;-71
2021/01/12 01:39:29;;;;;;;7.97;6.20;;;6.80;99.90;;;;;;5072074;28;20363;-72
2021/01/12 01:41:59;;;;;;;9.57;6.10;;;6.90;99.90;;;;;;5073593;28;20024;-72
2021/01/12 01:44:25;;;;;;;7.35;5.47;;;6.90;99.90;;;;;;5072089;28;20058;-72
2021/01/12 01:46:51;;;;;;;8.90;5.53;;;6.90;99.90;;;;;;5070172;28;20059;-73
2021/01/12 01:49:17;;;;;;;9.00;6.28;;;6.90;99.90;;;;;;5070743;28;20370;-71
2021/01/12 01:51:42;;;;;;;7.20;5.38;;;6.90;99.90;;;;;;5071787;28;20082;-72
2021/01/12 01:54:11;;;;;;;8.27;5.63;;;6.90;99.90;;;;;;5073397;28;20024;-72
2021/01/12 01:56:37;;;;;;;7.75;5.50;;;6.90;99.90;;;;;;5070903;28;20477;-71
2021/01/12 01:59:03;;;;;;;8.52;5.93;;;6.90;99.90;;;;;;5070886;28;20033;-71
2021/01/12 02:01:28;;;;;;;7.60;5.80;;;6.90;99.90;;;;;;5071035;28;20281;-71
2021/01/12 02:04:22;;;;;;;6.13;4.88;;;6.90;99.90;;;;;;5071676;28;20032;-70
2021/01/12 02:06:50;;;;;;;7.38;4.93;;;6.90;99.90;;;;;;5070330;28;20024;-72
2021/01/12 02:09:37;;;;;;;6.80;4.93;;;7.00;99.90;;;;;;5073152;28;20119;-72
2021/01/12 02:12:06;;;;;;;7.28;4.85;;;6.90;99.90;;;;;;5071127;28;20036;-71
2021/01/12 02:14:38;;;;;;;7.28;5.15;;;7.00;99.90;;;;;;5070298;28;20029;-71
2021/01/12 02:17:06;;;;;;;5.97;4.60;;;6.90;99.90;;;;;;5068726;28;20420;-71
2021/01/12 02:19:33;;;;;;;9.38;4.68;;;6.90;99.90;;;;;;5070678;28;20025;-70
2021/01/12 02:22:03;;;;;;;6.95;4.40;;;6.90;99.90;;;;;;5067315;28;20391;-72
2021/01/12 02:24:30;;;;;;;7.47;4.43;;;6.90;99.90;;;;;;5051504;28;20025;-72
2021/01/12 02:26:56;;;;;;;6.95;4.10;;;6.90;99.90;;;;;;5052267;28;20025;-71
2021/01/12 02:29:24;;;;;;;5.63;4.18;;;6.90;99.90;;;;;;5067541;28;20093;-71
2021/01/12 02:31:51;;;;;;;6.43;4.00;;;6.80;99.90;;;;;;5071428;28;20036;-72
2021/01/12 02:34:19;;;;;;;7.30;3.95;;;6.90;99.90;;;;;;5071511;28;20025;-71
2021/01/12 02:36:46;;;;;;;6.80;3.75;;;6.90;99.90;;;;;;5071662;28;20020;-71
2021/01/12 02:39:13;;;;;;;5.63;3.83;;;6.90;99.90;;;;;;5072875;28;20131;-71
2021/01/12 02:41:39;;;;;;;4.75;3.83;;;6.90;99.90;;;;;;5070338;28;20441;-72
2021/01/12 02:44:06;;;;;;;6.03;3.97;;;7.00;99.90;;;;;;5071302;28;20518;-71
2021/01/12 02:46:31;;;;;;;4.72;3.72;;;6.90;99.90;;;;;;5071269;28;20370;-71
2021/01/12 02:48:58;;;;;;;5.32;3.20;;;6.90;99.90;;;;;;5071416;28;20028;-71
2021/01/12 02:51:24;;;;;;;5.72;4.00;;;6.90;99.90;;;;;;5072948;28;20032;-72
2021/01/12 02:53:50;;;;;;;8.10;3.20;;;6.90;99.90;;;;;;5071279;28;20039;-71
2021/01/12 02:56:24;;;;;;;5.38;3.75;;;6.80;99.90;;;;;;5071238;28;20024;-70
2021/01/12 02:58:50;;;;;;;5.32;3.92;;;6.90;99.90;;;;;;5071141;28;20373;-70
2021/01/12 03:01:16;;;;;;;3.35;3.00;;;6.90;99.90;;;;;;5071283;28;20028;-71
2021/01/12 03:03:42;;;;;;;3.45;2.90;;;6.90;99.90;;;;;;5071074;28;20024;-71
2021/01/12 03:06:08;;;;;;;4.43;3.47;;;6.90;99.90;;;;;;5072917;28;20025;-71
2021/01/12 03:08:33;;;;;;;7.20;3.70;;;6.80;99.90;;;;;;5073244;28;20033;-71
2021/01/12 03:10:59;;;;;;;5.53;3.25;;;6.80;99.90;;;;;;5074764;28;20045;-71
2021/01/12 03:13:25;;;;;;;4.72;3.33;;;6.90;99.90;;;;;;5075108;28;20028;-71
2021/01/12 03:15:50;;;;;;;4.55;3.40;;;6.90;99.90;;;;;;5074630;28;20043;-71
2021/01/12 03:18:16;;;;;;;4.28;3.40;;;6.90;99.90;;;;;;5076099;28;20066;-72
2021/01/12 03:20:41;;;;;;;4.47;3.17;;;6.90;99.90;;;;;;5055750;28;20072;-71
2021/01/12 03:23:07;;;;;;;4.82;3.53;;;6.90;99.90;;;;;;5054497;28;20029;-72
2021/01/12 03:25:33;;;;;;;4.75;3.00;;;6.90;99.90;;;;;;5064056;28;20114;-73
2021/01/12 03:27:58;;;;;;;5.85;3.10;;;6.90;99.90;;;;;;5073509;28;20094;-71
2021/01/12 03:30:24;;;;;;;3.67;2.83;;;7.00;99.90;;;;;;5075933;28;20024;-70
2021/01/12 03:32:52;;;;;;;4.18;3.50;;;7.00;99.90;;;;;;5054570;28;20037;-71
2021/01/12 03:35:19;;;;;;;;;;;7.00;99.90;;;;;;5070618;28;20036;-70
2021/01/12 03:37:44;;;;;;;4.30;2.83;;;7.10;99.90;;;;;;5063328;28;20016;-71
2021/01/12 03:40:10;;;;;;;5.30;2.78;;;7.10;99.90;;;;;;5054094;28;20115;-72
2021/01/12 03:42:36;;;;;;;4.05;2.90;;;7.10;99.90;;;;;;5055593;28;20364;-71
2021/01/12 03:45:06;;;;;;;3.70;2.75;;;6.90;99.90;;;;;;5075909;28;20031;-71
2021/01/12 03:47:32;;;;;;;3.20;2.60;;;7.00;99.90;;;;;;5074126;28;20439;-71
2021/01/12 03:49:58;;;;;;;3.33;2.65;;;7.10;99.90;;;;;;5074516;28;20060;-70
2021/01/12 03:52:23;;;;;;;2.58;2.35;;;6.90;99.90;;;;;;5074309;28;20028;-71
2021/01/12 03:54:49;;;;;;;3.55;2.55;;;7.00;99.90;;;;;;5073072;28;20418;-72
2021/01/12 03:57:15;;;;;;;3.55;2.60;;;7.00;99.90;;;;;;5075657;28;20103;-71
2021/01/12 03:59:41;;;;;;;2.70;2.20;;;7.00;99.90;;;;;;5073818;28;20033;-70
2021/01/12 04:02:06;;;;;;;4.22;2.25;;;7.00;99.90;;;;;;5073897;28;20068;-71
2021/01/12 04:04:32;;;;;;;2.85;2.10;;;7.00;99.90;;;;;;5073856;28;20024;-70
2021/01/12 04:06:57;;;;;;;4.28;2.38;;;7.00;99.90;;;;;;5074270;28;20033;-70
2021/01/12 04:09:23;;;;;;;6.15;2.22;;;6.90;99.90;;;;;;5075158;28;20028;-70
2021/01/12 04:11:49;;;;;;;2.85;2.00;;;7.00;99.90;;;;;;5073891;28;20422;-70
2021/01/12 04:14:16;;;;;;;2.67;2.20;;;7.00;99.90;;;;;;5073629;28;20028;-71
2021/01/12 04:16:41;;;;;;;2.15;1.95;;;7.00;99.90;;;;;;5073790;28;20032;-71
2021/01/12 04:19:07;;;;;;;2.30;1.83;;;7.00;99.90;;;;;;5072794;28;20048;-71
2021/01/12 04:21:33;;;;;;;2.65;2.05;;;6.90;99.90;;;;;;5073402;28;20039;-72
2021/01/12 04:23:59;;;;;;;2.55;2.20;;;7.00;99.90;;;;;;5075269;28;20108;-71
2021/01/12 04:26:25;;;;;;;3.47;2.38;;;7.00;99.90;;;;;;5072581;28;20032;-71
2021/01/12 04:28:51;;;;;;;2.30;2.10;;;7.10;99.90;;;;;;5073713;28;20528;-72
2021/01/12 04:31:17;;;;;;;2.45;2.20;;;7.00;99.90;;;;;;5073134;28;20516;-71
2021/01/12 04:33:43;;;;;;;2.20;1.80;;;7.00;99.90;;;;;;5073224;28;20033;-71
2021/01/12 04:36:09;;;;;;;2.30;2.10;;;7.10;99.90;;;;;;5074765;28;20485;-71
2021/01/12 04:38:34;;;;;;;2.55;2.30;;;7.00;99.90;;;;;;5073038;28;20438;-71
2021/01/12 04:41:00;;;;;;;1.83;1.60;;;7.00;99.90;;;;;;5073309;28;20051;-71
2021/01/12 04:43:26;;;;;;;2.90;1.35;;;7.00;99.90;;;;;;5072267;28;20025;-71
2021/01/12 04:45:51;;;;;;;2.40;1.65;;;7.00;99.90;;;;;;5073257;28;20039;-71
2021/01/12 04:48:17;;;;;;;2.17;1.80;;;7.00;99.90;;;;;;5074298;28;20054;-71
2021/01/12 04:50:43;;;;;;;1.92;1.52;;;7.00;99.90;;;;;;5071865;28;20040;-71
2021/01/12 04:53:08;;;;;;;1.40;1.30;;;7.00;99.90;;;;;;5073010;28;20123;-70
2021/01/12 04:55:34;;;;;;;2.35;1.67;;;7.00;99.90;;;;;;5073104;28;20029;-71
2021/01/12 04:58:00;;;;;;;2.08;1.80;;;6.90;99.90;;;;;;5072924;28;20043;-72
2021/01/12 05:00:28;;;;;;;1.45;1.30;;;6.90;99.90;;;;;;5072957;28;20129;-70
2021/01/12 05:03:15;;;;;;;1.65;1.33;;;6.90;99.90;;;;;;5074504;28;20442;-71
2021/01/12 05:05:41;;;;;;;1.10;1.00;;;6.90;99.90;;;;;;5071577;28;20429;-71
2021/01/12 05:08:17;;;;;;;0.80;0.80;;;6.90;99.90;;;;;;5058311;28;20029;-71
2021/01/12 05:10:49;;;;;;;1.50;1.17;;;6.90;99.90;;;;;;5052643;28;20387;-70
2021/01/12 05:13:17;;;;;;;2.15;1.08;;;7.00;99.90;;;;;;5052549;28;20032;-70
2021/01/12 05:15:47;;;;;;;1.13;0.90;;;6.90;99.90;;;;;;5054952;28;20043;-70
2021/01/12 05:18:17;;;;;;;1.83;1.08;;;6.80;99.90;;;;;;5074212;28;20036;-71
2021/01/12 05:20:44;;;;;;;1.13;0.95;;;6.90;99.90;;;;;;5053347;28;20033;-72
2021/01/12 05:23:11;;;;;;;1.42;1.30;;;7.00;99.90;;;;;;5065588;28;20036;-71
2021/01/12 05:25:41;;;;;;;1.20;1.00;;;6.90;99.90;;;;;;5062769;28;20083;-71
2021/01/12 05:28:10;;;;;;;1.30;1.20;;;6.90;99.90;;;;;;5051540;28;20032;-71
2021/01/12 05:30:35;;;;;;;2.67;1.10;;;6.90;99.90;;;;;;5051017;28;20447;-72
2021/01/12 05:33:02;;;;;;;1.25;1.00;;;6.90;99.90;;;;;;5054216;28;20035;-72
2021/01/12 05:35:38;;;;;;;1.30;1.20;;;6.90;99.90;;;;;;5067905;28;20508;-71
2021/01/12 05:38:06;;;;;;;3.08;1.30;;;7.00;99.90;;;;;;5071707;28;20041;-71
2021/01/12 05:40:34;;;;;;;1.02;0.93;;;6.90;99.90;;;;;;5072010;28;20025;-72
2021/01/12 05:43:15;;;;;;;1.10;1.00;;;6.90;99.90;;;;;;5072124;28;20123;-72
2021/01/12 05:45:43;;;;;;;3.15;1.23;;;7.00;99.90;;;;;;5072061;28;20021;-72
2021/01/12 05:48:09;;;;;;;;;;;7.00;99.90;;;;;;5074189;28;20357;-71
2021/01/12 05:50:35;;;;;;;1.05;0.93;;;6.90;99.90;;;;;;5054188;28;19958;-71
2021/01/12 05:53:23;;;;;;;1.70;1.02;;;6.90;99.90;;;;;;5052124;28;20056;-72
2021/01/12 05:55:56;;;;;;;1.00;0.90;;;7.00;99.90;;;;;;5050516;28;20033;-71
2021/01/12 05:58:30;;;;;;;2.38;0.80;;;7.00;99.90;;;;;;5051912;28;20063;-71
2021/01/12 06:01:00;;;;;;;1.52;0.88;;;7.00;99.90;;;;;;5052333;28;20037;-71
2021/01/12 06:03:32;;;;;;;1.05;1.00;;;7.00;99.90;;;;;;5052134;28;20105;-70
2021/01/12 06:05:59;;;;;;;1.27;1.17;;;7.00;99.90;;;;;;5053536;28;20032;-71
2021/01/12 06:08:27;;;;;;;1.50;1.00;;;7.00;99.90;;;;;;5051976;28;20073;-72
2021/01/12 06:10:53;;;;;;;1.33;1.20;;;7.10;99.90;;;;;;5050556;28;20122;-72
2021/01/12 06:13:19;;;;;;;1.17;1.08;;;7.10;99.90;;;;;;5059047;28;20041;-71
2021/01/12 06:15:48;;;;;;;1.02;0.93;;;7.10;99.90;;;;;;5071792;28;20032;-72
2021/01/12 06:18:18;;;;;;;1.00;0.90;;;7.10;99.90;;;;;;5073222;28;20028;-71
2021/01/12 06:21:11;;;;;;;1.17;1.08;;;7.10;99.90;;;;;;5071369;28;20043;-71
2021/01/12 06:23:44;;;;;;;1.40;1.10;;;7.20;99.90;;;;;;5071157;28;20060;-72
2021/01/12 06:26:12;;;;;;;1.95;1.02;;;7.20;99.90;;;;;;5071754;28;20043;-73
2021/01/12 06:28:38;;;;;;;;;;;7.20;99.90;;;;;;5071741;28;20064;-73
2021/01/12 06:31:09;;;;;;;1.63;1.27;;;7.10;99.90;;;;;;5071564;28;19955;-72
2021/01/12 06:33:35;;;;;;;3.75;1.38;;;7.20;99.90;;;;;;5071549;28;20032;-72
2021/01/12 06:36:01;;;;;;;1.27;1.13;;;7.20;99.90;;;;;;5073165;28;20024;-71
2021/01/12 06:38:28;;;;;;;1.45;1.33;;;7.20;99.90;;;;;;5070595;28;20444;-72
2021/01/12 06:40:57;;;;;;;1.75;1.17;;;7.20;99.90;;;;;;5071445;28;20033;-72
2021/01/12 06:43:28;;;;;;;2.30;1.10;;;7.30;99.90;;;;;;5072833;28;20153;-72
2021/01/12 06:45:56;;;;;;;4.32;1.38;;;7.40;99.90;;;;;;5074217;28;20044;-71
2021/01/12 06:48:22;;;;;;;1.23;1.08;;;7.40;99.90;;;;;;5075731;28;20024;-71
2021/01/12 06:50:48;;;;;;;1.80;1.10;;;7.40;99.90;;;;;;5075265;28;20044;-72
2021/01/12 06:53:15;;;;;;;1.35;1.25;;;7.40;99.90;;;;;;5060518;28;20374;-71
2021/01/12 06:55:41;;;;;;;1.63;1.52;;;7.40;99.90;;;;;;5055278;28;20036;-72
2021/01/12 06:58:10;;;;;;;2.00;1.60;;;7.40;99.90;;;;;;5060974;28;20033;-73
2021/01/12 07:00:39;;;;;;;5.55;1.38;;;7.40;99.90;;;;;;5075244;28;20043;-72
2021/01/12 07:03:08;;;;;;;3.35;1.67;;;7.50;99.90;;;;;;5076662;28;20025;-72
2021/01/12 07:05:37;;;;;;;1.50;1.27;;;7.50;99.90;;;;;;5074410;28;20473;-73
2021/01/12 07:08:07;;;;;;;1.42;1.27;;;7.50;99.90;;;;;;5062100;28;20051;-72
2021/01/12 07:10:46;;;;;;;1.40;1.27;;;7.50;99.90;;;;;;5054065;28;20037;-73
2021/01/12 07:13:12;;;;;;;7.13;1.30;;;7.60;99.90;;;;;;5054070;28;20033;-73
2021/01/12 07:15:46;;;;;;;1.77;1.23;;;7.60;99.90;;;;;;5054886;28;20463;-72
2021/01/12 07:18:11;;;;;;;1.73;1.40;;;7.60;99.90;;;;;;5056598;28;20025;-72
2021/01/12 07:20:41;;;;;;;1.88;1.63;;;7.60;99.90;;;;;;5056085;28;20048;-72
2021/01/12 07:23:12;;;;;;;1.30;1.20;;;7.60;99.90;;;;;;5055009;28;20041;-73
2021/01/12 07:25:43;;;;;;;2.03;1.30;;;7.60;99.90;;;;;;5063815;28;20474;-74
2021/01/12 07:28:22;;;;;;;1.40;1.30;;;7.70;99.90;;;;;;5073972;28;20127;-73
2021/01/12 07:30:53;;;;;;;1.63;1.30;;;7.70;99.90;;;;;;5074871;28;20414;-70
2021/01/12 07:33:24;;;;;;;1.48;1.38;;;7.70;99.90;;;;;;5076548;28;20028;-72
2021/01/12 07:35:53;;;;;;;1.80;1.67;;;7.70;99.90;;;;;;5073902;28;20039;-72
2021/01/12 07:38:24;;;;;;;1.80;1.45;;;7.70;99.90;;;;;;5075138;28;20064;-78
2021/01/12 07:40:51;;;;;;;4.20;1.63;;;7.90;99.90;;;;;;5074857;28;20036;-71
2021/01/12 07:43:23;;;;;;;2.97;1.70;;;7.90;99.90;;;;;;5074620;28;20048;-71
2021/01/12 07:45:50;;;;;;;2.88;1.83;;;7.90;99.90;;;;;;5074363;28;20052;-71
2021/01/12 07:48:16;;;;;;;2.25;1.80;;;7.90;99.90;;;;;;5076043;28;20029;-71
2021/01/12 07:50:43;;;;;;;5.10;1.60;;;7.90;99.90;;;;;;5074478;28;20358;-74
2021/01/12 07:53:09;;;;;;;2.03;1.75;;;7.90;99.90;;;;;;5074494;28;20060;-70
2021/01/12 07:55:42;;;;;;;1.58;1.48;;;7.90;99.90;;;;;;5072189;28;20032;-70
2021/01/12 07:58:09;;;;;;;2.00;1.70;;;7.90;99.90;;;;;;5074427;28;20033;-70
2021/01/12 08:00:35;;;;;;;2.00;1.50;;;7.90;99.90;;;;;;5073421;28;20043;-70
2021/01/12 08:03:01;;;;;;;2.72;1.60;;;8.00;99.90;;;;;;5075784;28;20032;-70
2021/01/12 08:05:27;;;;;;;2.70;1.77;;;8.00;99.90;;;;;;5074067;28;20037;-69
2021/01/12 08:08:05;;;;;;;2.30;1.98;;;8.00;99.90;;;;;;5072942;28;20032;-68
2021/01/12 08:10:35;;;;;;;4.72;1.90;;;8.10;99.90;;;;;;5073204;28;20366;-69
2021/01/12 08:13:11;;;;;;;2.40;1.77;;;8.10;99.90;;;;;;5074006;28;20439;-69
2021/01/12 08:15:39;;;;;;;2.65;1.85;;;8.20;99.90;;;;;;5074182;28;20036;-70
2021/01/12 08:18:13;;;;;;;3.08;2.25;;;8.10;99.90;;;;;;5075232;28;20024;-74
2021/01/12 08:20:39;;;;;;;2.05;1.90;;;8.10;99.90;;;;;;5073496;28;20370;-71
2021/01/12 08:23:05;;;;;;;2.80;1.90;;;8.20;99.90;;;;;;5073688;28;20112;-70
2021/01/12 08:25:34;;;;;;;3.15;2.20;;;8.20;99.90;;;;;;5073808;28;20077;-70
2021/01/12 08:28:01;;;;;;;2.92;2.30;;;8.30;99.90;;;;;;5073669;28;20091;-70
2021/01/12 08:30:31;;;;;;;3.55;2.88;;;8.30;99.90;;;;;;5072588;28;20056;-69
2021/01/12 08:33:06;;;;;;;4.90;2.55;;;8.30;99.90;;;;;;5075190;28;20016;-70
2021/01/12 08:35:38;;;;;;;5.00;2.03;;;8.30;99.90;;;;;;5073219;28;20028;-69
2021/01/12 08:38:07;;;;;;;4.45;2.30;;;8.30;99.90;;;;;;5073324;28;20167;-72
2021/01/12 08:40:34;;;;;;;2.85;2.13;;;8.30;99.90;;;;;;5072648;28;20025;-70
2021/01/12 08:43:01;;;;;;;2.35;2.10;;;8.30;99.90;;;;;;5073303;28;20055;-73
2021/01/12 08:45:31;;;;;;;3.78;2.33;;;8.20;99.90;;;;;;5073250;28;20055;-70
2021/01/12 08:48:11;;;;;;;4.03;2.05;;;8.30;99.90;;;;;;5074890;28;20016;-76
2021/01/12 08:50:37;;;;;;;4.82;2.42;;;8.30;99.90;;;;;;5073025;28;20422;-71
2021/01/12 08:53:03;;;;;;;2.78;2.15;;;8.40;99.90;;;;;;5073243;28;20064;-72
2021/01/12 08:55:29;;;;;;;2.50;1.90;;;8.30;99.90;;;;;;5073168;28;20033;-71
2021/01/12 08:57:55;;;;;;;3.45;1.95;;;8.40;99.90;;;;;;5073313;28;20086;-72
2021/01/12 09:00:30;;;;;;;6.18;1.95;;;8.30;99.90;;;;;;5074577;28;20025;-70
2021/01/12 09:02:57;;;;;;;2.60;1.65;;;8.40;99.90;;;;;;5072027;28;20128;-70
2021/01/12 09:05:23;;;;;;;10.48;2.00;;;8.50;99.90;;;;;;5072277;28;20123;-71
2021/01/12 09:08:08;;;;;;;2.47;1.90;;;8.50;99.90;;;;;;5072674;28;20373;-70
2021/01/12 09:10:35;;;;;;;2.92;1.98;;;8.50;99.90;;;;;;5072441;28;20049;-70
2021/01/12 09:13:01;;;;;;;4.93;2.80;;;8.50;99.90;;;;;;5071158;28;20024;-70
2021/01/12 09:15:32;;;;;;;3.20;1.60;;;8.50;99.90;;;;;;5072821;28;20029;-69
2021/01/12 09:18:27;;;;;;;2.90;1.92;;;8.50;99.90;;;;;;5074454;28;20055;-72
2021/01/12 09:20:54;;;;;;;2.38;1.60;;;8.50;99.90;;;;;;5064414;28;20064;-71
2021/01/12 09:23:20;;;;;;;2.35;1.92;;;8.50;99.90;;;;;;5072528;28;20469;-70
2021/01/12 09:25:51;;;;;;;2.95;1.77;;;8.50;99.90;;;;;;5060239;28;20071;-73
2021/01/12 09:28:23;;;;;;;2.38;1.83;;;8.60;99.90;;;;;;5051869;28;20040;-79
2021/01/12 09:30:48;;;;;;;3.17;2.13;;;8.60;99.90;;;;;;5052762;28;20068;-77
2021/01/12 09:33:23;;;;;;;10.70;4.18;;;8.50;99.90;;;;;;5054146;28;20071;-76
2021/01/12 09:36:02;;;;;;;6.80;3.17;;;8.60;99.90;;;;;;5050479;28;20032;-74
2021/01/12 09:38:54;;;;;;;3.08;2.00;;;8.50;99.90;;;;;;5052235;28;20057;-75
2021/01/12 09:41:28;;;;;;;3.05;2.20;;;8.60;99.90;;;;;;5049995;28;20120;-73
2021/01/12 09:43:54;;;;;;;3.22;2.45;;;8.60;99.90;;;;;;5052202;28;20033;-74
2021/01/12 09:46:21;;;;;;;3.63;2.45;;;8.60;99.90;;;;;;5051043;28;20029;-74
2021/01/12 09:48:47;;;;;;;4.45;2.45;;;8.60;99.90;;;;;;5050397;28;20076;-73
2021/01/12 09:51:13;;;;;;;4.85;2.97;;;8.50;99.90;;;;;;5053728;28;20061;-70
2021/01/12 09:53:40;;;;;;;3.58;2.33;;;8.40;99.90;;;;;;5052073;28;20033;-70
2021/01/12 09:56:10;;;;;;;2.58;1.15;;;8.30;99.90;;;;;;5052327;28;20033;-71
2021/01/12 09:58:35;;;;;;;1.67;1.02;;;8.10;99.90;;;;;;5050956;28;20025;-70
2021/01/12 10:01:01;;;;;;;1.38;0.50;;;8.00;99.90;;;;;;5051628;28;20035;-69
2021/01/12 10:03:27;;;;;;;4.93;0.57;;;7.80;99.90;;;;;;5051930;28;20028;-71
2021/01/12 10:05:52;;;;;;;2.05;0.80;;;7.60;99.90;;;;;;5053919;28;20092;-69
2021/01/12 10:08:18;;;;;;;2.88;0.70;;;7.50;99.90;;;;;;5052088;28;20356;-71
2021/01/12 10:10:44;;;;;;;1.42;0.65;;;7.40;99.90;;;;;;5051683;28;20505;-73
2021/01/12 10:13:09;;;;;;;2.88;0.40;;;7.30;99.90;;;;;;5050784;28;20044;-70
2021/01/12 10:15:35;;;;;;;6.32;0.88;;;7.20;99.90;;;;;;5051821;28;20021;-69
2021/01/12 10:18:01;;;;;;;6.85;1.15;;;7.10;99.90;;;;;;5051392;28;20021;-69
2021/01/12 10:20:27;;;;;;;4.82;1.00;;;7.10;99.90;;;;;;5051863;28;20340;-70
2021/01/12 10:22:52;;;;;;;4.85;1.65;;;7.10;99.90;;;;;;5052048;28;20367;-68
2021/01/12 10:25:19;;;;;;;6.63;1.73;;;7.10;99.90;;;;;;5059631;28;20033;-76
2021/01/12 10:27:45;;;;;;;1.65;0.50;;;7.00;99.90;;;;;;5070187;28;20048;-71
2021/01/12 10:30:12;;;;;;;7.93;0.95;;;6.90;99.90;;;;;;5073419;28;20032;-70
2021/01/12 10:32:41;;;;;;;6.40;1.00;;;6.80;99.90;;;;;;5071650;28;20028;-70
2021/01/12 10:35:08;;;;;;;3.80;1.30;;;6.80;99.90;;;;;;5071396;28;20086;-69
2021/01/12 10:37:33;;;;;;;1.77;0.40;;;6.80;99.90;;;;;;5070303;28;20086;-69
2021/01/12 10:39:59;;;;;;;2.95;0.77;;;6.70;99.90;;;;;;5071558;28;20501;-70
2021/01/12 10:42:25;;;;;;;6.40;0.68;;;6.70;99.90;;;;;;5072959;28;20342;-69
2021/01/12 10:44:51;;;;;;;6.35;0.90;;;6.60;99.90;;;;;;5071717;28;20085;-70
2021/01/12 10:47:17;;;;;;;5.72;0.80;;;6.60;99.90;;;;;;5069993;28;20127;-70
2021/01/12 10:49:43;;;;;;;6.57;1.15;;;6.50;99.90;;;;;;5071489;28;20048;-70
2021/01/12 10:52:09;;;;;;;5.35;0.98;;;6.60;99.90;;;;;;5071389;28;20039;-68
2021/01/12 10:54:36;;;;;;;1.38;0.50;;;6.60;99.90;;;;;;5070256;28;20021;-70
2021/01/12 10:57:03;;;;;;;4.47;0.93;;;6.60;99.90;;;;;;5072093;28;20013;-71
2021/01/12 10:59:29;;;;;;;6.40;1.00;;;6.70;99.90;;;;;;5070496;28;20139;-71
2021/01/12 11:02:03;;;;;;;3.95;1.20;;;6.70;99.90;;;;;;5071577;28;20028;-70
2021/01/12 11:04:29;;;;;;;4.20;1.00;;;6.90;99.90;;;;;;5071415;28;20085;-70
2021/01/12 11:06:55;;;;;;;2.65;1.00;;;7.00;99.90;;;;;;5071310;28;20055;-70
2021/01/12 11:09:23;;;;;;;3.92;0.98;;;7.00;99.90;;;;;;5072533;28;20103;-71
2021/01/12 11:11:49;;;;;;;7.23;1.20;;;7.00;99.90;;;;;;5071033;28;20040;-71
2021/01/12 11:14:20;;;;;;;5.35;1.65;;;7.00;99.90;;;;;;5071437;28;20276;-69
2021/01/12 11:16:46;;;;;;;6.55;1.10;;;7.00;99.90;;;;;;5071211;28;20033;-69
2021/01/12 11:19:13;;;;;;;5.38;2.45;;;7.10;99.90;;;;;;5071316;28;20033;-71
2021/01/12 11:21:44;;;;;;;10.77;3.65;;;7.10;99.90;;;;;;5071233;28;20036;-71
2021/01/12 11:24:14;;;;;;;4.45;1.60;;;7.10;99.90;;;;;;5072511;28;20097;-69
2021/01/12 11:26:42;;;;;;;8.77;2.53;;;7.10;99.90;;;;;;5065780;28;20069;-71
2021/01/12 11:29:08;;;;;;;9.57;2.05;;;7.10;99.90;;;;;;5072284;28;20036;-70
2021/01/12 11:31:34;;;;;;;6.30;1.90;;;7.00;99.90;;;;;;5072761;28;20047;-70
2021/01/12 11:34:00;;;;;;;6.60;1.88;;;7.10;99.90;;;;;;5074519;28;20032;-69
2021/01/12 11:36:42;;;;;;;7.43;1.60;;;7.10;99.90;;;;;;5074873;28;20024;-75
2021/01/12 11:39:10;;;;;;;9.05;1.27;;;7.10;99.90;;;;;;5074842;28;20075;-77
2021/01/12 11:41:57;;;;;;;3.15;1.15;;;7.30;99.90;;;;;;5073324;28;20059;-71
2021/01/12 11:44:25;;;;;;;8.30;2.30;;;7.20;99.90;;;;;;5074049;28;20090;-78
2021/01/12 11:46:51;;;;;;;10.93;1.50;;;7.40;99.90;;;;;;5074107;28;20075;-78
2021/01/12 11:49:17;;;;;;;9.98;1.50;;;7.30;99.90;;;;;;5074153;28;20037;-77
2021/01/12 11:51:45;;;;;;;12.60;1.55;;;7.30;99.90;;;;;;5074224;27;20077;-76
2021/01/12 11:54:11;;;;;;;8.05;1.33;;;7.20;99.90;;;;;;5074833;28;20029;-76
2021/01/12 11:56:39;;;;;;;7.85;1.42;;;7.30;99.90;;;;;;5074255;28;20458;-70
2021/01/12 11:59:06;;;;;;;11.07;2.08;;;7.30;99.90;;;;;;5072921;28;20036;-70
2021/01/12 12:01:45;;;;;;;4.00;1.55;;;7.20;99.90;;;;;;5074152;28;20028;-70
2021/01/12 12:04:11;;;;;;;11.85;1.40;;;7.30;99.90;;;;;;5074107;28;20465;-70
2021/01/12 12:06:36;;;;;;;6.28;1.77;;;7.40;99.90;;;;;;5073975;28;20099;-70
2021/01/12 12:09:03;;;;;;;9.43;1.45;;;7.40;99.90;;;;;;5075568;28;20393;-70
2021/01/12 12:11:34;;;;;;;5.70;1.33;;;7.40;99.90;;;;;;5073977;28;20449;-70
2021/01/12 12:14:00;;;;;;;7.28;1.58;;;7.60;99.90;;;;;;5073894;28;20045;-70
2021/01/12 12:16:26;;;;;;;8.05;1.10;;;7.50;99.90;;;;;;5073815;28;20508;-70
2021/01/12 12:18:52;;;;;;;6.20;0.80;;;7.50;99.90;;;;;;5073014;28;20047;-71
2021/01/12 12:21:18;;;;;;;9.18;1.30;;;7.40;99.90;;;;;;5075334;28;20021;-70
2021/01/12 12:23:43;;;;;;;10.15;1.40;;;7.50;99.90;;;;;;5073360;28;20036;-69
2021/01/12 12:26:10;;;;;;;11.40;2.08;;;7.50;99.80;;;;;;5073652;28;20268;-68
2021/01/12 12:28:36;;;;;;;12.85;1.60;;;7.30;99.80;;;;;;5073647;28;20036;-69
2021/01/12 12:31:03;;;;;;;12.00;2.03;;;7.40;99.80;;;;;;5073951;28;20125;-70
2021/01/12 12:33:29;;;;;;;10.07;2.38;;;7.30;99.80;;;;;;5072743;28;20043;-68
2021/01/12 12:35:55;;;;;;;7.85;1.85;;;7.40;99.90;;;;;;5074860;28;20021;-69
2021/01/12 12:38:20;;;;;;;12.20;2.15;;;7.40;99.90;;;;;;5073256;28;20056;-69
2021/01/12 12:40:46;;;;;;;7.45;1.58;;;7.40;99.90;;;;;;5072404;28;20041;-70
2021/01/12 12:43:12;;;;;;;9.50;1.83;;;7.60;99.90;;;;;;5072297;28;20028;-70
2021/01/12 12:45:38;;;;;;;12.10;1.90;;;7.70;99.90;;;;;;5072969;28;20109;-69
2021/01/12 12:48:06;;;;;;;11.98;1.75;;;7.70;99.90;;;;;;5073517;28;20458;-70
2021/01/12 12:50:33;;;;;;;10.65;1.73;;;7.70;99.90;;;;;;5072925;28;20070;-71
2021/01/12 12:52:58;;;;;;;7.32;1.50;;;7.80;99.90;;;;;;5072814;28;20036;-76
2021/01/12 12:55:24;;;;;;;13.68;1.65;;;7.70;99.90;;;;;;5072980;28;20032;-69
2021/01/12 12:57:50;;;;;;;11.20;2.00;;;7.90;99.90;;;;;;5072347;28;20033;-75
2021/01/12 13:00:17;;;;;;;8.80;2.03;;;8.10;99.80;;;;;;5074926;28;20029;-74
2021/01/12 13:02:44;;;;;;;12.80;1.93;;;8.30;99.90;;;;;;5072823;28;20032;-78